Latest Weather Observations for Rottnest Island

IDW60901

Issued at 3:25 pm WST Monday 1 September 2014 (issued every 10 minutes, with the page automatically refreshed every 10 minutes)

About weather observations | Map of Perth area stations | Latest observations for Perth area | Other Formats
Station Details ID: 009193 Name: ROTTNEST ISLAND Lat: -32.01 Lon: 115.50 Height: 43.1 m
Data from the previous 72 hours. | See also: Recent months at Rottnest Island
Date/Time
WST
Tmp

°C
App
Tmp
°C
Dew
Point
°C
Rel
Hum
%
Delta-T

°C
Wind Press
QNH
hPa
Press
MSL
hPa
Rain
since
9 am
mm
Dir
 
Spd
km/h
Gust
km/h
Spd
kts
Gust
kts
01/03:00pm 17.9 13.6 7.0 49 5.4 NE 19 26 10 14 1020.3 1020.3 0.0
01/02:30pm 17.9 13.6 7.0 49 5.5 NE 19 24 10 13 1020.1 1020.1 0.0
01/02:00pm 17.2 12.2 6.4 49 5.3 NE 22 30 12 16 1020.3 1020.3 0.0
01/01:30pm 17.6 13.3 7.9 53 4.9 NE 20 28 11 15 1020.8 1020.8 0.0
01/01:00pm 17.1 12.2 6.9 51 5.1 ENE 22 32 12 17 1021.0 1021.0 0.0
01/12:30pm 17.0 12.2 7.4 53 4.8 ENE 22 35 12 19 1021.5 1021.5 0.0
01/12:00pm 16.0 10.6 6.4 53 4.7 ENE 24 32 13 17 1022.2 1022.2 0.0
01/11:30am 16.3 10.9 6.4 52 4.8 ENE 24 33 13 18 1022.9 1022.9 0.0
01/11:00am 15.5 9.6 6.0 53 4.6 ENE 26 37 14 20 1023.1 1023.1 0.0
01/10:30am 15.6 11.2 7.4 58 4.1 ENE 20 28 11 15 1023.1 1023.1 0.0
01/10:00am 15.1 10.4 7.6 61 3.7 ENE 22 33 12 18 1023.3 1023.3 0.0
01/09:30am 14.2 8.9 7.0 62 3.5 ENE 24 37 13 20 1023.4 1023.4 0.0
01/09:00am 13.3 7.3 6.9 65 3.1 ENE 28 37 15 20 1023.4 1023.4 0.0
01/08:30am 13.0 7.4 7.0 67 2.9 ENE 26 35 14 19 1023.5 1023.5 0.0
01/08:00am 12.3 7.0 6.8 69 2.6 ENE 24 35 13 19 1023.3 1023.3 0.0
01/07:30am 12.1 6.5 7.0 71 2.5 ENE 26 35 14 19 1023.3 1023.3 0.0
01/07:00am 11.6 6.2 6.5 71 2.4 ENE 24 33 13 18 1023.2 1023.2 0.0
01/06:30am 11.7 6.6 6.2 69 2.6 E 22 32 12 17 1022.9 1022.9 0.0
01/06:00am 11.5 7.4 6.2 70 2.5 E 17 26 9 14 1022.3 1022.3 0.0
01/05:30am 11.5 6.8 6.2 70 2.5 E 20 28 11 15 1021.9 1021.9 0.0
01/05:00am 11.4 7.3 6.1 70 2.5 E 17 26 9 14 1021.4 1021.4 0.0
01/04:30am 11.7 7.0 6.2 69 2.6 E 20 26 11 14 1021.5 1021.5 0.0
01/04:00am 11.6 7.1 6.1 69 2.6 E 19 28 10 15 1021.6 1021.6 0.0
01/03:30am 12.0 7.5 6.3 68 2.7 E 19 28 10 15 1021.5 1021.5 0.0
01/03:00am 12.3 7.6 6.1 66 2.9 E 20 28 11 15 1021.6 1021.6 0.0
01/02:30am 12.5 8.0 6.3 66 2.9 E 19 26 10 14 1021.5 1021.5 0.0
01/02:00am 13.0 8.7 7.0 67 2.9 ESE 19 26 10 14 1021.5 1021.5 0.0
01/01:30am 13.7 7.7 7.2 65 3.2 SE 28 33 15 18 1021.5 1021.5 0.0
01/01:00am 14.0 7.6 7.1 63 3.4 SE 30 37 16 20 1021.2 1021.2 0.0
01/12:30am 14.1 8.1 6.9 62 3.5 SE 28 37 15 20 1021.3 1021.3 0.0
01/12:00am 14.3 8.6 6.6 60 3.7 SSE 26 35 14 19 1021.4 1021.4 0.0
 
Date/Time
WST
Tmp

°C
App
Tmp
°C
Dew
Point
°C
Rel
Hum
%
Delta-T

°C
Wind Press
QNH
hPa
Press
MSL
hPa
Rain
since
9 am
mm
Dir
 
Spd
km/h
Gust
km/h
Spd
kts
Gust
kts
31/11:30pm 14.5 8.2 7.3 62 3.5 SE 30 35 16 19 1021.5 1021.5 0.0
31/11:00pm 14.7 8.8 7.3 61 3.6 SSE 28 33 15 18 1021.6 1021.6 0.0
31/10:30pm 14.7 9.1 7.0 60 3.8 SSE 26 35 14 19 1021.6 1021.6 0.0
31/10:00pm 14.9 8.9 7.0 59 3.9 SSE 28 37 15 20 1021.8 1021.8 0.0
31/09:30pm 14.9 8.3 6.2 56 4.2 S 30 37 16 20 1021.8 1021.8 0.0
31/09:00pm 15.0 8.9 6.6 57 4.1 S 28 35 15 19 1021.7 1021.7 0.0
31/08:30pm 14.9 8.5 7.0 59 3.9 S 30 39 16 21 1021.5 1021.5 0.0
31/08:00pm 14.8 7.9 6.6 58 4.0 S 32 37 17 20 1021.0 1021.0 0.0
31/07:30pm 14.8 8.2 6.1 56 4.2 S 30 35 16 19 1020.8 1020.8 0.0
31/07:00pm 14.9 8.3 6.0 55 4.3 S 30 37 16 20 1020.8 1020.8 0.0
31/06:30pm 14.7 8.5 6.3 57 4.1 S 28 35 15 19 1020.4 1020.4 0.0
31/06:00pm 14.9 8.2 5.4 53 4.5 S 30 35 16 19 1020.1 1020.1 0.0
31/05:30pm 14.8 8.2 5.9 55 4.3 S 30 35 16 19 1019.9 1019.9 0.0
31/05:00pm 15.1 9.3 6.4 56 4.2 S 26 35 14 19 1020.1 1020.1 0.0
31/04:30pm 15.6 9.9 6.9 56 4.3 S 26 32 14 17 1020.0 1020.0 0.0
31/04:00pm 15.8 11.4 7.3 57 4.2 S 20 28 11 15 1019.7 1019.7 0.0
31/03:30pm 15.6 11.2 7.4 58 4.1 S 20 26 11 14 1019.1 1019.1 0.0
31/03:00pm 15.4 11.1 6.9 57 4.2 S 19 22 10 12 1019.2 1019.2 0.0
31/02:30pm 15.2 10.5 6.2 55 4.4 S 20 26 11 14 1019.1 1019.1 0.0
31/02:00pm 15.6 11.2 6.6 55 4.4 SSE 19 26 10 14 1018.9 1018.9 0.0
31/01:30pm 15.8 11.8 6.8 55 4.4 SE 17 24 9 13 1019.3 1019.3 0.0
31/01:00pm 15.5 11.1 7.3 58 4.1 SSE 20 30 11 16 1019.4 1019.4 0.0
31/12:30pm 15.8 11.0 7.3 57 4.2 SSE 22 30 12 16 1019.4 1019.4 0.0
31/12:00pm 15.5 10.8 7.8 60 3.8 SE 22 30 12 16 1019.8 1019.8 0.0
31/11:30am 15.2 10.3 8.4 64 3.4 SE 24 30 13 16 1019.9 1019.9 0.0
31/11:00am 14.8 8.8 7.1 60 3.8 SE 28 35 15 19 1019.7 1019.7 0.0
31/10:30am 14.7 9.2 7.5 62 3.6 SE 26 35 14 19 1020.0 1020.0 0.0
31/10:00am 14.5 11.1 7.5 63 3.4 ESE 15 20 8 11 1020.0 1020.0 0.0
31/09:30am 14.3 9.6 7.6 64 3.3 SE 22 30 12 16 1019.9 1019.9 0.0
31/09:00am 13.9 10.1 7.4 65 3.2 SSE 17 22 9 12 1019.8 1019.8 1.2
31/08:30am 13.4 9.8 8.5 72 2.5 SSE 17 24 9 13 1019.6 1019.6 1.2
31/08:07am 12.2 6.1 8.3 77 1.9 S 30 48 16 26 1019.6 1019.6 1.2
31/08:00am 11.9 4.5 8.2 78 1.8 S 37 48 20 26 1019.3 1019.3 1.2
31/07:59am 11.8 4.3 8.1 78 1.8 S 37 48 20 26 1019.1 1019.1 1.2
31/07:30am 13.5 8.6 8.4 71 2.5 SE 24 32 13 17 1018.7 1018.7 1.2
31/07:00am 13.2 8.6 8.3 72 2.4 SE 22 30 12 16 1018.5 1018.5 1.2
31/06:30am 13.1 9.5 9.9 81 1.6 SE 19 24 10 13 1018.1 1018.1 1.2
31/06:00am 13.0 9.3 10.2 83 1.4 SE 20 30 11 16 1017.9 1017.9 1.2
31/05:30am 13.0 8.7 10.7 86 1.2 SE 24 30 13 16 1017.6 1017.6 1.2
31/05:00am 13.2 8.5 10.7 85 1.3 SE 26 35 14 19 1017.3 1017.3 1.0
31/04:30am 13.9 8.9 10.9 82 1.6 SE 28 32 15 17 1017.0 1017.0 1.0
31/04:00am 14.4 8.2 11.4 82 1.6 S 35 44 19 24 1017.0 1017.0 1.0
31/03:30am 13.2 8.7 11.3 88 1.0 S 26 41 14 22 1017.3 1017.3 1.0
31/03:00am 12.9 6.4 10.4 85 1.3 SSW 35 44 19 24 1017.3 1017.3 0.4
31/02:56am 13.4 6.6 10.6 83 1.5 SSW 37 44 20 24 1017.2 1017.2 0.2
31/02:30am 14.4 10.7 9.6 73 2.5 SSW 19 22 10 12 1017.2 1017.2 0.0
31/02:00am 14.6 11.0 10.6 77 2.1 SSW 20 26 11 14 1017.2 1017.2 0.0
31/01:30am 14.3 9.9 10.3 77 2.1 SW 24 32 13 17 1017.6 1017.6 0.0
31/01:00am 14.3 10.0 10.9 80 1.8 SW 24 32 13 17 1017.5 1017.5 0.0
31/12:30am 14.0 10.2 9.8 76 2.2 SW 20 26 11 14 1017.2 1017.2 0.0
31/12:00am 14.2 9.7 10.2 77 2.1 WSW 24 30 13 16 1017.6 1017.6 0.0
 
Date/Time
WST
Tmp

°C
App
Tmp
°C
Dew
Point
°C
Rel
Hum
%
Delta-T

°C
Wind Press
QNH
hPa
Press
MSL
hPa
Rain
since
9 am
mm
Dir
 
Spd
km/h
Gust
km/h
Spd
kts
Gust
kts
30/11:30pm 14.2 10.3 9.6 74 2.4 WSW 20 28 11 15 1017.9 1017.9 0.0
30/11:00pm 15.3 11.4 9.4 68 3.0 WSW 20 26 11 14 1017.5 1017.5 0.0
30/10:30pm 14.9 11.7 8.6 66 3.2 WSW 15 20 8 11 1017.5 1017.5 0.0
30/10:00pm 15.3 11.2 8.8 65 3.3 WSW 20 26 11 14 1017.8 1017.8 0.0
30/09:30pm 15.8 11.8 9.2 65 3.4 SW 20 28 11 15 1018.0 1018.0 0.0
30/09:00pm 15.6 11.9 9.5 67 3.2 SW 19 24 10 13 1017.8 1017.8 0.0
30/08:30pm 15.6 11.6 8.1 61 3.8 WSW 19 24 10 13 1018.1 1018.1 0.0
30/08:00pm 15.5 12.2 8.0 61 3.8 WSW 15 17 8 9 1017.9 1017.9 0.0
30/07:30pm 15.7 12.0 8.0 60 3.9 WSW 17 24 9 13 1017.9 1017.9 0.0
30/07:00pm 15.9 11.8 7.7 58 4.1 WSW 19 24 10 13 1017.7 1017.7 0.0
30/06:30pm 15.7 12.0 8.0 60 3.9 WSW 17 26 9 14 1017.4 1017.4 0.0
30/06:00pm 15.8 11.6 8.3 61 3.8 SW 20 26 11 14 1017.0 1017.0 0.0
30/05:30pm 15.9 11.9 8.2 60 3.9 SW 19 24 10 13 1016.8 1016.8 0.0
30/05:00pm 16.3 12.2 8.5 60 4.0 WSW 20 28 11 15 1016.6 1016.5 0.0
30/04:30pm 16.8 12.4 8.8 59 4.1 SW 22 28 12 15 1016.5 1016.4 0.0
30/04:00pm 17.1 12.2 8.5 57 4.4 SW 24 30 13 16 1016.4 1016.3 0.0
30/03:30pm 17.0 12.5 8.7 58 4.3 SW 22 30 12 16 1016.0 1015.9 0.0
30/03:00pm 17.9 13.6 9.5 58 4.4 SSW 22 28 12 15 1015.9 1015.8 0.0
30/02:30pm 17.9 13.7 9.8 59 4.3 SW 22 28 12 15 1015.8 1015.7 0.0
30/02:00pm 17.2 12.9 9.4 60 4.1 SSW 22 30 12 16 1015.5 1015.4 0.0
30/01:30pm 18.1 13.9 11.2 64 3.8 SSW 24 32 13 17 1015.5 1015.4 0.0
30/01:00pm 17.4 13.4 10.5 64 3.7 SSW 22 32 12 17 1016.0 1015.9 0.0
30/12:30pm 17.8 13.5 10.7 63 3.8 S 24 30 13 16 1015.9 1015.8 0.0
30/12:00pm 18.1 13.7 10.5 61 4.1 SSW 24 32 13 17 1016.0 1015.9 0.0
30/11:30am 17.3 13.4 10.7 65 3.5 SSW 22 28 12 15 1016.1 1016.0 0.0
30/11:00am 17.4 14.1 10.8 65 3.5 SW 19 26 10 14 1016.3 1016.2 0.0
30/10:30am 16.7 13.7 10.5 67 3.3 SW 17 20 9 11 1016.2 1016.1 0.0
30/10:00am 16.4 12.3 11.3 72 2.7 SSW 24 35 13 19 1016.2 1016.1 0.0
30/09:30am 16.2 11.6 12.2 77 2.2 SSW 28 35 15 19 1016.2 1016.1 0.0
30/09:00am 16.7 12.5 12.5 76 2.3 SSW 26 33 14 18 1015.8 1015.7 23.4
30/08:30am 16.3 11.9 12.8 80 1.9 SSW 28 35 15 19 1015.7 1015.6 23.4
30/08:00am 15.6 10.8 12.9 84 1.5 SSW 30 37 16 20 1015.4 1015.3 23.4
30/07:30am 15.5 9.5 13.3 87 1.2 SSW 37 44 20 24 1014.9 1014.8 23.4
30/07:00am 16.1 10.7 12.8 81 1.8 SSW 33 39 18 21 1014.4 1014.3 23.4
30/06:30am 16.3 12.2 13.8 85 1.4 SSW 28 35 15 19 1013.8 1013.7 23.4
30/06:00am 16.2 11.5 14.2 88 1.1 SSW 32 44 17 24 1013.4 1013.3 23.4
30/05:30am 16.2 12.0 14.6 90 0.9 SSW 30 39 16 21 1013.2 1013.1 23.4
30/05:00am 15.9 11.7 14.6 92 0.7 SW 30 39 16 21 1013.2 1013.1 23.4
30/04:30am 15.9 12.6 14.9 94 0.6 SW 26 32 14 17 1012.9 1012.8 23.4
30/04:00am 15.8 13.5 14.7 93 0.6 WSW 20 30 11 16 1012.5 1012.4 23.2
30/03:30am 16.4 12.6 14.8 90 0.9 WNW 28 37 15 20 1012.8 1012.7 22.8
30/03:00am 16.8 12.9 14.3 85 1.4 WNW 28 35 15 19 1012.6 1012.5 22.0
30/02:30am 16.9 12.2 14.4 85 1.4 WNW 32 39 17 21 1012.8 1012.7 22.0
30/02:00am 16.8 12.5 14.4 86 1.4 WNW 30 37 16 20 1013.0 1012.9 22.0
30/01:30am 16.5 12.7 14.7 89 1.0 WNW 28 37 15 20 1013.4 1013.3 22.0
30/01:00am 16.4 12.3 14.8 90 0.9 WNW 30 37 16 20 1013.1 1013.0 21.8
30/12:30am 16.1 12.4 15.0 93 0.6 NW 28 35 15 19 1012.6 1012.5 21.8
30/12:00am 15.8 12.1 15.0 95 0.5 NW 28 35 15 19 1012.9 1012.8 21.8
 
Date/Time
WST
Tmp

°C
App
Tmp
°C
Dew
Point
°C
Rel
Hum
%
Delta-T

°C
Wind Press
QNH
hPa
Press
MSL
hPa
Rain
since
9 am
mm
Dir
 
Spd
km/h
Gust
km/h
Spd
kts
Gust
kts
29/11:30pm 14.9 12.4 14.1 95 0.5 WNW 20 28 11 15 1013.4 1013.3 21.4
29/11:00pm 14.7 10.2 13.7 94 0.6 W 30 41 16 22 1014.1 1014.0 20.8
29/10:30pm 15.0 10.2 13.9 93 0.6 W 32 41 17 22 1014.2 1014.1 19.6
29/10:00pm 15.0 12.1 14.0 94 0.6 W 22 33 12 18 1014.1 1014.0 18.8
29/09:30pm 15.4 13.2 14.3 93 0.6 WNW 19 26 10 14 1014.2 1014.1 17.8
29/09:00pm 15.6 13.7 14.3 92 0.7 NW 17 20 9 11 1014.0 1013.9 16.8
29/08:30pm 16.0 14.5 14.2 89 1.0 W 15 20 8 11 1013.8 1013.7 16.4
29/08:00pm 16.1 12.9 14.3 89 1.0 NW 24 33 13 18 1014.1 1014.0 16.0
29/07:30pm 16.7 13.4 15.1 90 0.9 W 26 35 14 19 1014.0 1013.9 14.4
29/07:00pm 16.5 14.0 15.2 92 0.8 W 22 30 12 16 1013.2 1013.1 14.2
29/06:30pm 16.6 12.9 15.0 90 0.9 WNW 28 37 15 20 1013.5 1013.4 12.4
29/06:00pm 17.0 12.0 14.1 83 1.7 WNW 33 43 18 23 1013.3 1013.2 10.4
29/05:30pm 17.1 12.5 14.7 86 1.4 WNW 32 39 17 21 1012.6 1012.5 10.0
29/05:00pm 17.4 13.0 16.6 95 0.5 WNW 35 43 19 23 1012.7 1012.6 10.0
29/04:30pm 17.0 14.0 15.9 93 0.6 W 26 44 14 24 1012.7 1012.6 8.6
29/04:07pm 17.4 12.7 15.9 91 0.9 WNW 35 54 19 29 1012.6 1012.5 7.0
29/04:00pm 17.4 11.9 15.7 90 1.0 NW 39 48 21 26 1012.7 1012.6 5.8
29/03:30pm 18.3 12.7 15.6 84 1.6 NW 39 48 21 26 1012.2 1012.1 5.4

Latest Capital City Observations: Canberra | Sydney | Melbourne | Brisbane | Adelaide | Perth | Hobart | Darwin

Other Formats:

Comma delimited format used in spreadsheet applications
http://www.bom.gov.au/fwo/IDW60901/IDW60901.94602.axf

JavaScript Object Notation format (JSON) in row-major order
http://www.bom.gov.au/fwo/IDW60901/IDW60901.94602.json